Decoded Metar for KVDF (TAMPA/VANDENBURG in FL, USA) (IATA:VDF) | Meteo·Mobile Aviation Weather
aviador You're here:

KVDF Decoded Metar

TAMPA/VANDENBURG in FL, USA
Report Time2018-12-15 18:15:00
UTC Time2018-12-15 18:22:33
Flight Rules vfr VFR
Wind250° at 04 kt
W.Decomp.*RWY 23: 3.7 kt HW 1.6 kt RCW
RWY 18: 1.1 kt HW 3.8 kt RCW
W.Rank250° ranks 34
Current wind is below 250° avg. (4.3)
Visibility9999 m
Phenomena:Heavy Rain
Clouds:N/A
Expected CloudBase > 1,200 ft AGL from Temp-Dew spread
CeilingNone
Temp20°C (ISA +5)
Dew Point17°C (83% RH)
QNH1017 hPa
Density Alt735 ft
Elevation23 ft
Report Wrong Elevation
Raw Report
METAR KVDF 151815Z AUTO 25004KT 7SM +RA 20/17 A3004 RMK AO2=

Extra information for KVDF:More info

Metar Taf Metar & Taf Last 4 Metars F.Rules Stats Wind Profile Meteogram Temp Stats Airport Information Weather charts Add Link Nearby VenuesMetar ALERT Operation Metar Decoded Social comments

AIRNAV info for KVDF